sensor_id;sensor_type;location;lat;lon;timestamp;temperature;humidity
30520;DHT22;17300;50.374;8.006;2023-03-23T00:02:06;18.10;42.10
30520;DHT22;17300;50.374;8.006;2023-03-23T00:04:32;18.10;42.30
30520;DHT22;17300;50.374;8.006;2023-03-23T00:07:00;18.10;42.40
30520;DHT22;17300;50.374;8.006;2023-03-23T00:09:28;18.10;42.60
30520;DHT22;17300;50.374;8.006;2023-03-23T00:12:00;18.10;42.60
30520;DHT22;17300;50.374;8.006;2023-03-23T00:14:31;18.10;42.60
30520;DHT22;17300;50.374;8.006;2023-03-23T00:17:06;18.10;42.90
30520;DHT22;17300;50.374;8.006;2023-03-23T00:19:35;18.10;43.30
30520;DHT22;17300;50.374;8.006;2023-03-23T00:22:13;18.00;43.60
30520;DHT22;17300;50.374;8.006;2023-03-23T00:24:40;18.00;43.70
30520;DHT22;17300;50.374;8.006;2023-03-23T00:27:06;18.00;43.80
30520;DHT22;17300;50.374;8.006;2023-03-23T00:29:34;17.90;43.80
30520;DHT22;17300;50.374;8.006;2023-03-23T00:32:01;17.90;44.20
30520;DHT22;17300;50.374;8.006;2023-03-23T00:34:28;17.90;44.40
30520;DHT22;17300;50.374;8.006;2023-03-23T00:36:59;17.80;44.50
30520;DHT22;17300;50.374;8.006;2023-03-23T00:39:28;17.80;44.80
30520;DHT22;17300;50.374;8.006;2023-03-23T00:41:55;17.70;44.60
30520;DHT22;17300;50.374;8.006;2023-03-23T00:44:26;17.70;44.80
30520;DHT22;17300;50.374;8.006;2023-03-23T00:46:53;17.70;45.00
30520;DHT22;17300;50.374;8.006;2023-03-23T00:49:22;17.60;44.90
30520;DHT22;17300;50.374;8.006;2023-03-23T00:51:51;17.50;44.90
30520;DHT22;17300;50.374;8.006;2023-03-23T00:54:18;17.50;45.40
30520;DHT22;17300;50.374;8.006;2023-03-23T00:56:46;17.40;45.70
30520;DHT22;17300;50.374;8.006;2023-03-23T00:59:13;17.40;45.90
30520;DHT22;17300;50.374;8.006;2023-03-23T01:01:40;17.30;46.10
30520;DHT22;17300;50.374;8.006;2023-03-23T01:04:08;17.30;46.40
30520;DHT22;17300;50.374;8.006;2023-03-23T01:06:38;17.20;46.60
30520;DHT22;17300;50.374;8.006;2023-03-23T01:09:07;17.10;46.90
30520;DHT22;17300;50.374;8.006;2023-03-23T01:11:34;17.10;46.90
30520;DHT22;17300;50.374;8.006;2023-03-23T01:14:03;17.00;47.00
30520;DHT22;17300;50.374;8.006;2023-03-23T01:16:29;17.00;47.30
30520;DHT22;17300;50.374;8.006;2023-03-23T01:18:56;17.00;47.20
30520;DHT22;17300;50.374;8.006;2023-03-23T01:21:23;16.90;47.00
30520;DHT22;17300;50.374;8.006;2023-03-23T01:23:50;16.90;47.10
30520;DHT22;17300;50.374;8.006;2023-03-23T01:26:19;16.80;47.30
30520;DHT22;17300;50.374;8.006;2023-03-23T01:28:46;16.80;47.30
30520;DHT22;17300;50.374;8.006;2023-03-23T01:31:17;16.80;47.40
30520;DHT22;17300;50.374;8.006;2023-03-23T01:33:44;16.70;47.70
30520;DHT22;17300;50.374;8.006;2023-03-23T01:36:13;16.70;47.90
30520;DHT22;17300;50.374;8.006;2023-03-23T01:38:42;16.70;48.20
30520;DHT22;17300;50.374;8.006;2023-03-23T01:41:08;16.70;48.30
30520;DHT22;17300;50.374;8.006;2023-03-23T01:43:36;16.70;48.40
30520;DHT22;17300;50.374;8.006;2023-03-23T01:46:03;16.60;48.50
30520;DHT22;17300;50.374;8.006;2023-03-23T01:48:33;16.60;49.20
30520;DHT22;17300;50.374;8.006;2023-03-23T01:51:04;16.60;48.90
30520;DHT22;17300;50.374;8.006;2023-03-23T01:53:36;16.60;48.90
30520;DHT22;17300;50.374;8.006;2023-03-23T01:56:04;16.50;49.20
30520;DHT22;17300;50.374;8.006;2023-03-23T01:58:33;16.50;49.00
30520;DHT22;17300;50.374;8.006;2023-03-23T02:01:04;16.40;49.20
30520;DHT22;17300;50.374;8.006;2023-03-23T02:03:35;16.40;49.40
30520;DHT22;17300;50.374;8.006;2023-03-23T02:06:04;16.40;49.60
30520;DHT22;17300;50.374;8.006;2023-03-23T02:08:32;16.40;49.60
30520;DHT22;17300;50.374;8.006;2023-03-23T02:11:00;16.30;49.60
30520;DHT22;17300;50.374;8.006;2023-03-23T02:13:28;16.30;49.70
30520;DHT22;17300;50.374;8.006;2023-03-23T02:16:04;16.30;49.80
30520;DHT22;17300;50.374;8.006;2023-03-23T02:18:53;16.30;50.40
30520;DHT22;17300;50.374;8.006;2023-03-23T02:21:45;16.30;50.70
30520;DHT22;17300;50.374;8.006;2023-03-23T02:27:24;16.20;50.80
30520;DHT22;17300;50.374;8.006;2023-03-23T02:30:09;16.20;50.10
30520;DHT22;17300;50.374;8.006;2023-03-23T02:35:38;16.10;50.80
30520;DHT22;17300;50.374;8.006;2023-03-23T02:38:08;16.10;50.20
30520;DHT22;17300;50.374;8.006;2023-03-23T02:40:40;16.10;50.40
30520;DHT22;17300;50.374;8.006;2023-03-23T02:43:09;16.00;51.10
30520;DHT22;17300;50.374;8.006;2023-03-23T02:45:37;16.00;50.60
30520;DHT22;17300;50.374;8.006;2023-03-23T02:48:06;16.00;50.70
30520;DHT22;17300;50.374;8.006;2023-03-23T02:50:37;16.00;50.80
30520;DHT22;17300;50.374;8.006;2023-03-23T02:53:08;15.90;50.90
30520;DHT22;17300;50.374;8.006;2023-03-23T02:55:36;15.90;51.10
30520;DHT22;17300;50.374;8.006;2023-03-23T02:58:07;15.90;51.10
30520;DHT22;17300;50.374;8.006;2023-03-23T03:00:34;15.90;51.20
30520;DHT22;17300;50.374;8.006;2023-03-23T03:03:02;15.90;51.40
30520;DHT22;17300;50.374;8.006;2023-03-23T03:05:38;15.90;51.40
30520;DHT22;17300;50.374;8.006;2023-03-23T03:08:19;15.90;51.80
30520;DHT22;17300;50.374;8.006;2023-03-23T03:10:53;15.80;52.00
30520;DHT22;17300;50.374;8.006;2023-03-23T03:13:29;15.90;51.60
30520;DHT22;17300;50.374;8.006;2023-03-23T03:16:01;15.80;51.70
30520;DHT22;17300;50.374;8.006;2023-03-23T03:18:31;15.80;51.70
30520;DHT22;17300;50.374;8.006;2023-03-23T03:21:02;15.80;51.60
30520;DHT22;17300;50.374;8.006;2023-03-23T03:23:31;15.80;51.80
30520;DHT22;17300;50.374;8.006;2023-03-23T03:26:00;15.70;51.70
30520;DHT22;17300;50.374;8.006;2023-03-23T03:28:27;15.70;51.90
30520;DHT22;17300;50.374;8.006;2023-03-23T03:30:56;15.70;51.90
30520;DHT22;17300;50.374;8.006;2023-03-23T03:33:27;15.70;52.10
30520;DHT22;17300;50.374;8.006;2023-03-23T03:35:58;15.70;52.10
30520;DHT22;17300;50.374;8.006;2023-03-23T03:38:27;15.70;52.20
30520;DHT22;17300;50.374;8.006;2023-03-23T03:40:55;15.70;52.20
30520;DHT22;17300;50.374;8.006;2023-03-23T03:43:22;15.70;52.30
30520;DHT22;17300;50.374;8.006;2023-03-23T03:45:49;15.70;52.40
30520;DHT22;17300;50.374;8.006;2023-03-23T03:48:15;15.60;52.10
30520;DHT22;17300;50.374;8.006;2023-03-23T03:50:42;15.60;52.10
30520;DHT22;17300;50.374;8.006;2023-03-23T03:53:09;15.70;52.00
30520;DHT22;17300;50.374;8.006;2023-03-23T03:55:37;15.70;52.10
30520;DHT22;17300;50.374;8.006;2023-03-23T03:58:04;15.70;52.10
30520;DHT22;17300;50.374;8.006;2023-03-23T04:00:32;15.70;51.90
30520;DHT22;17300;50.374;8.006;2023-03-23T04:02:58;15.70;51.90
30520;DHT22;17300;50.374;8.006;2023-03-23T04:05:25;15.80;52.00
30520;DHT22;17300;50.374;8.006;2023-03-23T04:07:54;15.80;51.80
30520;DHT22;17300;50.374;8.006;2023-03-23T04:10:27;15.80;51.80
30520;DHT22;17300;50.374;8.006;2023-03-23T04:12:56;15.90;52.50
30520;DHT22;17300;50.374;8.006;2023-03-23T04:15:23;15.90;51.80
30520;DHT22;17300;50.374;8.006;2023-03-23T04:17:50;16.00;51.80
30520;DHT22;17300;50.374;8.006;2023-03-23T04:20:16;16.00;52.40
30520;DHT22;17300;50.374;8.006;2023-03-23T04:22:43;16.10;51.80
30520;DHT22;17300;50.374;8.006;2023-03-23T04:25:12;16.10;51.70
30520;DHT22;17300;50.374;8.006;2023-03-23T04:27:39;16.10;51.70
30520;DHT22;17300;50.374;8.006;2023-03-23T04:30:11;16.10;51.70
30520;DHT22;17300;50.374;8.006;2023-03-23T04:32:38;16.20;51.80
30520;DHT22;17300;50.374;8.006;2023-03-23T04:35:08;16.20;51.70
30520;DHT22;17300;50.374;8.006;2023-03-23T04:37:36;16.20;51.70
30520;DHT22;17300;50.374;8.006;2023-03-23T04:40:05;16.20;51.80
30520;DHT22;17300;50.374;8.006;2023-03-23T04:42:36;16.20;51.90
30520;DHT22;17300;50.374;8.006;2023-03-23T04:45:05;16.20;51.90
30520;DHT22;17300;50.374;8.006;2023-03-23T04:47:35;16.20;51.90
30520;DHT22;17300;50.374;8.006;2023-03-23T04:50:07;16.30;52.10
30520;DHT22;17300;50.374;8.006;2023-03-23T04:52:34;16.30;52.00
30520;DHT22;17300;50.374;8.006;2023-03-23T04:55:04;16.40;52.00
30520;DHT22;17300;50.374;8.006;2023-03-23T04:57:30;16.30;51.90
30520;DHT22;17300;50.374;8.006;2023-03-23T04:59:58;16.40;51.90
30520;DHT22;17300;50.374;8.006;2023-03-23T05:02:25;16.40;52.00
30520;DHT22;17300;50.374;8.006;2023-03-23T05:04:57;16.40;52.50
30520;DHT22;17300;50.374;8.006;2023-03-23T05:07:24;16.40;52.00
30520;DHT22;17300;50.374;8.006;2023-03-23T05:09:51;16.40;51.90
30520;DHT22;17300;50.374;8.006;2023-03-23T05:12:18;16.40;51.80
30520;DHT22;17300;50.374;8.006;2023-03-23T05:14:44;16.50;51.90
30520;DHT22;17300;50.374;8.006;2023-03-23T05:17:11;16.50;52.00
30520;DHT22;17300;50.374;8.006;2023-03-23T05:19:42;16.50;52.10
30520;DHT22;17300;50.374;8.006;2023-03-23T05:22:11;16.50;52.10
30520;DHT22;17300;50.374;8.006;2023-03-23T05:24:38;16.50;52.10
30520;DHT22;17300;50.374;8.006;2023-03-23T05:27:05;16.50;52.00
30520;DHT22;17300;50.374;8.006;2023-03-23T05:29:33;16.60;52.10
30520;DHT22;17300;50.374;8.006;2023-03-23T05:32:01;16.60;52.10
30520;DHT22;17300;50.374;8.006;2023-03-23T05:34:29;16.60;51.90
30520;DHT22;17300;50.374;8.006;2023-03-23T05:36:57;16.60;51.90
30520;DHT22;17300;50.374;8.006;2023-03-23T05:39:32;16.60;51.90
30520;DHT22;17300;50.374;8.006;2023-03-23T05:41:59;16.60;51.90
30520;DHT22;17300;50.374;8.006;2023-03-23T05:44:26;16.60;51.80
30520;DHT22;17300;50.374;8.006;2023-03-23T05:46:53;16.70;51.80
30520;DHT22;17300;50.374;8.006;2023-03-23T05:49:20;16.60;51.80
30520;DHT22;17300;50.374;8.006;2023-03-23T05:51:47;16.60;51.70
30520;DHT22;17300;50.374;8.006;2023-03-23T05:54:15;16.70;51.80
30520;DHT22;17300;50.374;8.006;2023-03-23T05:56:43;16.60;51.80
30520;DHT22;17300;50.374;8.006;2023-03-23T05:59:10;16.60;51.80
30520;DHT22;17300;50.374;8.006;2023-03-23T06:01:37;16.60;51.80
30520;DHT22;17300;50.374;8.006;2023-03-23T06:04:04;16.60;52.00
30520;DHT22;17300;50.374;8.006;2023-03-23T06:06:31;16.60;51.90
30520;DHT22;17300;50.374;8.006;2023-03-23T06:08:58;16.60;51.90
30520;DHT22;17300;50.374;8.006;2023-03-23T06:11:26;16.60;51.90
30520;DHT22;17300;50.374;8.006;2023-03-23T06:13:54;16.60;52.00
30520;DHT22;17300;50.374;8.006;2023-03-23T06:16:21;16.60;52.10
30520;DHT22;17300;50.374;8.006;2023-03-23T06:18:48;16.60;52.10
30520;DHT22;17300;50.374;8.006;2023-03-23T06:21:15;16.70;52.20
30520;DHT22;17300;50.374;8.006;2023-03-23T06:23:43;16.70;52.20
30520;DHT22;17300;50.374;8.006;2023-03-23T06:26:12;16.70;52.10
30520;DHT22;17300;50.374;8.006;2023-03-23T06:28:41;16.80;52.30
30520;DHT22;17300;50.374;8.006;2023-03-23T06:31:10;16.80;52.20
30520;DHT22;17300;50.374;8.006;2023-03-23T06:33:37;16.80;52.20
30520;DHT22;17300;50.374;8.006;2023-03-23T06:36:05;16.80;52.10
30520;DHT22;17300;50.374;8.006;2023-03-23T06:38:32;16.80;52.00
30520;DHT22;17300;50.374;8.006;2023-03-23T06:40:58;16.90;52.00
30520;DHT22;17300;50.374;8.006;2023-03-23T06:43:25;16.90;52.00
30520;DHT22;17300;50.374;8.006;2023-03-23T06:45:52;16.90;51.90
30520;DHT22;17300;50.374;8.006;2023-03-23T06:48:20;17.00;51.80
30520;DHT22;17300;50.374;8.006;2023-03-23T06:50:47;17.00;51.70
30520;DHT22;17300;50.374;8.006;2023-03-23T06:53:13;17.10;51.80
30520;DHT22;17300;50.374;8.006;2023-03-23T06:55:42;17.10;51.80
30520;DHT22;17300;50.374;8.006;2023-03-23T06:58:09;17.10;51.80
30520;DHT22;17300;50.374;8.006;2023-03-23T07:00:36;17.10;51.70
30520;DHT22;17300;50.374;8.006;2023-03-23T07:03:04;17.10;51.60
30520;DHT22;17300;50.374;8.006;2023-03-23T07:05:32;17.20;51.60
30520;DHT22;17300;50.374;8.006;2023-03-23T07:07:58;17.20;51.60
30520;DHT22;17300;50.374;8.006;2023-03-23T07:10:25;17.20;51.50
30520;DHT22;17300;50.374;8.006;2023-03-23T07:12:53;17.20;51.40
30520;DHT22;17300;50.374;8.006;2023-03-23T07:15:19;17.20;51.30
30520;DHT22;17300;50.374;8.006;2023-03-23T07:17:47;17.20;51.10
30520;DHT22;17300;50.374;8.006;2023-03-23T07:20:14;17.20;51.20
30520;DHT22;17300;50.374;8.006;2023-03-23T07:22:42;17.20;51.30
30520;DHT22;17300;50.374;8.006;2023-03-23T07:25:09;17.20;51.30
30520;DHT22;17300;50.374;8.006;2023-03-23T07:27:36;17.20;51.10
30520;DHT22;17300;50.374;8.006;2023-03-23T07:30:04;17.20;51.00
30520;DHT22;17300;50.374;8.006;2023-03-23T07:32:31;17.30;51.10
30520;DHT22;17300;50.374;8.006;2023-03-23T07:34:58;17.30;51.00
30520;DHT22;17300;50.374;8.006;2023-03-23T07:37:25;17.30;51.00
30520;DHT22;17300;50.374;8.006;2023-03-23T07:39:56;17.30;51.00
30520;DHT22;17300;50.374;8.006;2023-03-23T07:42:23;17.30;51.00
30520;DHT22;17300;50.374;8.006;2023-03-23T07:44:50;17.40;50.90
30520;DHT22;17300;50.374;8.006;2023-03-23T07:47:16;17.40;50.90
30520;DHT22;17300;50.374;8.006;2023-03-23T07:49:44;17.40;50.90
30520;DHT22;17300;50.374;8.006;2023-03-23T07:52:10;17.40;50.80
30520;DHT22;17300;50.374;8.006;2023-03-23T07:54:38;17.50;50.80
30520;DHT22;17300;50.374;8.006;2023-03-23T07:57:06;17.50;50.70
30520;DHT22;17300;50.374;8.006;2023-03-23T07:59:33;17.50;50.70
30520;DHT22;17300;50.374;8.006;2023-03-23T08:02:00;17.50;50.80
30520;DHT22;17300;50.374;8.006;2023-03-23T08:04:27;17.50;50.70
30520;DHT22;17300;50.374;8.006;2023-03-23T08:06:54;17.60;50.90
30520;DHT22;17300;50.374;8.006;2023-03-23T08:09:21;17.70;51.00
30520;DHT22;17300;50.374;8.006;2023-03-23T08:11:48;17.70;51.10
30520;DHT22;17300;50.374;8.006;2023-03-23T08:14:16;17.80;51.10
30520;DHT22;17300;50.374;8.006;2023-03-23T08:16:43;17.90;51.10
30520;DHT22;17300;50.374;8.006;2023-03-23T08:19:09;17.90;51.00
30520;DHT22;17300;50.374;8.006;2023-03-23T08:21:36;18.00;50.90
30520;DHT22;17300;50.374;8.006;2023-03-23T08:24:03;18.10;50.70
30520;DHT22;17300;50.374;8.006;2023-03-23T08:26:31;18.20;50.70
30520;DHT22;17300;50.374;8.006;2023-03-23T08:28:57;18.20;50.60
30520;DHT22;17300;50.374;8.006;2023-03-23T08:31:25;18.20;50.50
30520;DHT22;17300;50.374;8.006;2023-03-23T08:33:52;18.20;50.40
30520;DHT22;17300;50.374;8.006;2023-03-23T08:36:22;18.30;50.40
30520;DHT22;17300;50.374;8.006;2023-03-23T08:38:48;18.30;50.30
30520;DHT22;17300;50.374;8.006;2023-03-23T08:41:17;18.40;50.30
30520;DHT22;17300;50.374;8.006;2023-03-23T08:43:43;18.40;50.30
30520;DHT22;17300;50.374;8.006;2023-03-23T08:46:10;18.50;50.30
30520;DHT22;17300;50.374;8.006;2023-03-23T08:48:38;18.50;50.10
30520;DHT22;17300;50.374;8.006;2023-03-23T08:51:06;18.60;50.00
30520;DHT22;17300;50.374;8.006;2023-03-23T08:53:34;18.60;49.90
30520;DHT22;17300;50.374;8.006;2023-03-23T08:56:06;18.60;49.70
30520;DHT22;17300;50.374;8.006;2023-03-23T08:58:33;18.70;49.70
30520;DHT22;17300;50.374;8.006;2023-03-23T09:01:00;18.80;49.70
30520;DHT22;17300;50.374;8.006;2023-03-23T09:03:28;18.80;49.60
30520;DHT22;17300;50.374;8.006;2023-03-23T09:05:59;18.90;49.70
30520;DHT22;17300;50.374;8.006;2023-03-23T09:08:27;18.90;49.60
30520;DHT22;17300;50.374;8.006;2023-03-23T09:10:54;19.10;50.00
30520;DHT22;17300;50.374;8.006;2023-03-23T09:13:21;19.20;50.10
30520;DHT22;17300;50.374;8.006;2023-03-23T09:15:49;19.40;50.00
30520;DHT22;17300;50.374;8.006;2023-03-23T09:18:15;19.50;49.70
30520;DHT22;17300;50.374;8.006;2023-03-23T09:20:42;19.70;49.40
30520;DHT22;17300;50.374;8.006;2023-03-23T09:23:10;19.80;49.00
30520;DHT22;17300;50.374;8.006;2023-03-23T09:25:38;19.90;48.70
30520;DHT22;17300;50.374;8.006;2023-03-23T09:28:06;19.90;48.60
30520;DHT22;17300;50.374;8.006;2023-03-23T09:30:33;20.00;48.40
30520;DHT22;17300;50.374;8.006;2023-03-23T09:33:02;20.00;48.20
30520;DHT22;17300;50.374;8.006;2023-03-23T09:35:29;20.00;48.10
30520;DHT22;17300;50.374;8.006;2023-03-23T09:37:59;20.10;48.00
30520;DHT22;17300;50.374;8.006;2023-03-23T09:40:32;20.10;47.70
30520;DHT22;17300;50.374;8.006;2023-03-23T09:46:27;20.00;47.40
30520;DHT22;17300;50.374;8.006;2023-03-23T09:48:59;20.00;46.80
30520;DHT22;17300;50.374;8.006;2023-03-23T09:51:36;19.90;46.80
30520;DHT22;17300;50.374;8.006;2023-03-23T09:54:08;19.90;46.70
30520;DHT22;17300;50.374;8.006;2023-03-23T09:56:37;19.80;46.70
30520;DHT22;17300;50.374;8.006;2023-03-23T09:59:11;19.70;46.60
30520;DHT22;17300;50.374;8.006;2023-03-23T10:01:41;19.60;46.50
30520;DHT22;17300;50.374;8.006;2023-03-23T10:04:14;19.70;47.00
30520;DHT22;17300;50.374;8.006;2023-03-23T10:06:42;19.60;47.10
30520;DHT22;17300;50.374;8.006;2023-03-23T10:09:15;19.50;47.00
30520;DHT22;17300;50.374;8.006;2023-03-23T10:11:53;19.60;47.10
30520;DHT22;17300;50.374;8.006;2023-03-23T10:14:41;19.60;47.10
30520;DHT22;17300;50.374;8.006;2023-03-23T10:17:14;19.60;47.00
30520;DHT22;17300;50.374;8.006;2023-03-23T10:19:47;19.60;47.00
30520;DHT22;17300;50.374;8.006;2023-03-23T10:22:20;19.70;47.00
30520;DHT22;17300;50.374;8.006;2023-03-23T10:24:51;19.70;47.10
30520;DHT22;17300;50.374;8.006;2023-03-23T10:27:26;19.80;47.40
30520;DHT22;17300;50.374;8.006;2023-03-23T10:29:59;19.80;47.40
30520;DHT22;17300;50.374;8.006;2023-03-23T10:32:41;20.00;47.70
30520;DHT22;17300;50.374;8.006;2023-03-23T10:35:13;20.10;47.70
30520;DHT22;17300;50.374;8.006;2023-03-23T10:37:45;20.20;48.00
30520;DHT22;17300;50.374;8.006;2023-03-23T10:40:16;20.50;48.10
30520;DHT22;17300;50.374;8.006;2023-03-23T10:42:45;20.60;48.10
30520;DHT22;17300;50.374;8.006;2023-03-23T10:45:17;20.90;48.30
30520;DHT22;17300;50.374;8.006;2023-03-23T10:47:49;21.10;47.80
30520;DHT22;17300;50.374;8.006;2023-03-23T10:50:23;21.40;47.80
30520;DHT22;17300;50.374;8.006;2023-03-23T10:52:51;21.50;47.10
30520;DHT22;17300;50.374;8.006;2023-03-23T10:55:20;21.70;47.00
30520;DHT22;17300;50.374;8.006;2023-03-23T10:58:00;21.80;46.50
30520;DHT22;17300;50.374;8.006;2023-03-23T11:00:28;21.80;45.70
30520;DHT22;17300;50.374;8.006;2023-03-23T11:03:01;21.80;45.90
30520;DHT22;17300;50.374;8.006;2023-03-23T11:05:34;21.80;45.30
30520;DHT22;17300;50.374;8.006;2023-03-23T11:08:01;21.70;45.00
30520;DHT22;17300;50.374;8.006;2023-03-23T11:10:35;21.60;44.90
30520;DHT22;17300;50.374;8.006;2023-03-23T11:13:03;21.40;44.40
30520;DHT22;17300;50.374;8.006;2023-03-23T11:15:37;21.30;44.50
30520;DHT22;17300;50.374;8.006;2023-03-23T11:18:06;21.10;44.50
30520;DHT22;17300;50.374;8.006;2023-03-23T11:20:38;21.00;44.80
30520;DHT22;17300;50.374;8.006;2023-03-23T11:23:20;20.80;45.00
30520;DHT22;17300;50.374;8.006;2023-03-23T11:25:56;20.80;45.10
30520;DHT22;17300;50.374;8.006;2023-03-23T11:28:29;20.60;44.90
30520;DHT22;17300;50.374;8.006;2023-03-23T11:30:58;20.50;45.20
30520;DHT22;17300;50.374;8.006;2023-03-23T11:33:29;20.50;45.50
30520;DHT22;17300;50.374;8.006;2023-03-23T11:35:56;20.40;45.50
30520;DHT22;17300;50.374;8.006;2023-03-23T11:38:24;20.40;45.50
30520;DHT22;17300;50.374;8.006;2023-03-23T11:40:53;20.40;45.50
30520;DHT22;17300;50.374;8.006;2023-03-23T11:43:21;20.30;45.60
30520;DHT22;17300;50.374;8.006;2023-03-23T11:45:58;20.30;45.60
30520;DHT22;17300;50.374;8.006;2023-03-23T11:48:33;20.30;45.50
30520;DHT22;17300;50.374;8.006;2023-03-23T11:51:05;20.20;45.50
30520;DHT22;17300;50.374;8.006;2023-03-23T11:53:42;20.20;45.60
30520;DHT22;17300;50.374;8.006;2023-03-23T11:56:15;20.20;45.60
30520;DHT22;17300;50.374;8.006;2023-03-23T11:58:44;20.20;45.90
30520;DHT22;17300;50.374;8.006;2023-03-23T12:01:19;20.20;46.20
30520;DHT22;17300;50.374;8.006;2023-03-23T12:04:12;20.30;46.50
30520;DHT22;17300;50.374;8.006;2023-03-23T12:06:48;20.40;46.70
30520;DHT22;17300;50.374;8.006;2023-03-23T12:09:25;20.70;47.00
30520;DHT22;17300;50.374;8.006;2023-03-23T12:12:06;20.80;47.10
30520;DHT22;17300;50.374;8.006;2023-03-23T12:14:41;21.00;46.60
30520;DHT22;17300;50.374;8.006;2023-03-23T12:17:20;21.20;46.30
30520;DHT22;17300;50.374;8.006;2023-03-23T12:19:58;21.30;45.90
30520;DHT22;17300;50.374;8.006;2023-03-23T12:22:43;21.40;45.80
30520;DHT22;17300;50.374;8.006;2023-03-23T12:28:21;21.60;45.60
30520;DHT22;17300;50.374;8.006;2023-03-23T12:30:55;21.60;45.40
30520;DHT22;17300;50.374;8.006;2023-03-23T12:33:32;21.70;45.20
30520;DHT22;17300;50.374;8.006;2023-03-23T12:36:08;21.80;45.00
30520;DHT22;17300;50.374;8.006;2023-03-23T12:38:49;21.90;44.80
30520;DHT22;17300;50.374;8.006;2023-03-23T12:41:18;21.90;45.10
30520;DHT22;17300;50.374;8.006;2023-03-23T12:43:52;21.90;44.70
30520;DHT22;17300;50.374;8.006;2023-03-23T12:46:44;22.00;44.60
30520;DHT22;17300;50.374;8.006;2023-03-23T12:49:18;22.00;44.30
30520;DHT22;17300;50.374;8.006;2023-03-23T12:51:51;22.00;44.50
30520;DHT22;17300;50.374;8.006;2023-03-23T12:54:25;22.00;44.50
30520;DHT22;17300;50.374;8.006;2023-03-23T12:56:56;22.00;44.40
30520;DHT22;17300;50.374;8.006;2023-03-23T12:59:33;22.00;44.40
30520;DHT22;17300;50.374;8.006;2023-03-23T13:02:13;22.00;44.40
30520;DHT22;17300;50.374;8.006;2023-03-23T13:04:44;22.10;44.40
30520;DHT22;17300;50.374;8.006;2023-03-23T13:07:14;22.10;44.30
30520;DHT22;17300;50.374;8.006;2023-03-23T13:09:48;22.20;44.40
30520;DHT22;17300;50.374;8.006;2023-03-23T13:12:16;22.20;44.30
30520;DHT22;17300;50.374;8.006;2023-03-23T13:14:50;22.30;44.60
30520;DHT22;17300;50.374;8.006;2023-03-23T13:17:29;22.40;44.60
30520;DHT22;17300;50.374;8.006;2023-03-23T13:20:13;22.60;44.30
30520;DHT22;17300;50.374;8.006;2023-03-23T13:22:45;22.70;43.90
30520;DHT22;17300;50.374;8.006;2023-03-23T13:25:19;22.80;43.80
30520;DHT22;17300;50.374;8.006;2023-03-23T13:27:56;22.90;43.80
30520;DHT22;17300;50.374;8.006;2023-03-23T13:30:24;23.00;43.20
30520;DHT22;17300;50.374;8.006;2023-03-23T13:32:51;23.10;43.50
30520;DHT22;17300;50.374;8.006;2023-03-23T13:35:20;23.20;43.30
30520;DHT22;17300;50.374;8.006;2023-03-23T13:37:50;23.20;43.20
30520;DHT22;17300;50.374;8.006;2023-03-23T13:40:24;23.30;43.50
30520;DHT22;17300;50.374;8.006;2023-03-23T13:42:54;23.30;42.40
30520;DHT22;17300;50.374;8.006;2023-03-23T13:45:23;23.40;42.60
30520;DHT22;17300;50.374;8.006;2023-03-23T13:48:02;23.40;42.30
30520;DHT22;17300;50.374;8.006;2023-03-23T13:50:42;23.30;41.70
30520;DHT22;17300;50.374;8.006;2023-03-23T13:53:14;23.40;42.00
30520;DHT22;17300;50.374;8.006;2023-03-23T13:55:42;23.30;41.70
30520;DHT22;17300;50.374;8.006;2023-03-23T13:58:22;23.30;41.90
30520;DHT22;17300;50.374;8.006;2023-03-23T14:01:02;23.20;41.20
30520;DHT22;17300;50.374;8.006;2023-03-23T14:03:35;23.10;41.10
30520;DHT22;17300;50.374;8.006;2023-03-23T14:06:07;23.00;41.10
30520;DHT22;17300;50.374;8.006;2023-03-23T14:08:42;22.90;41.10
30520;DHT22;17300;50.374;8.006;2023-03-23T14:11:13;22.80;40.90
30520;DHT22;17300;50.374;8.006;2023-03-23T14:13:43;22.70;41.20
30520;DHT22;17300;50.374;8.006;2023-03-23T14:16:16;22.50;41.10
30520;DHT22;17300;50.374;8.006;2023-03-23T14:18:50;22.40;41.20
30520;DHT22;17300;50.374;8.006;2023-03-23T14:21:31;22.30;41.40
30520;DHT22;17300;50.374;8.006;2023-03-23T14:24:00;22.20;41.50
30520;DHT22;17300;50.374;8.006;2023-03-23T14:26:28;22.10;41.80
30520;DHT22;17300;50.374;8.006;2023-03-23T14:28:55;22.10;41.90
30520;DHT22;17300;50.374;8.006;2023-03-23T14:31:23;22.00;41.90
30520;DHT22;17300;50.374;8.006;2023-03-23T14:33:51;22.00;42.00
30520;DHT22;17300;50.374;8.006;2023-03-23T14:36:22;22.00;42.20
30520;DHT22;17300;50.374;8.006;2023-03-23T14:38:57;22.00;42.40
30520;DHT22;17300;50.374;8.006;2023-03-23T14:41:28;22.00;42.40
30520;DHT22;17300;50.374;8.006;2023-03-23T14:43:56;22.10;42.70
30520;DHT22;17300;50.374;8.006;2023-03-23T14:46:24;22.10;42.70
30520;DHT22;17300;50.374;8.006;2023-03-23T14:48:51;22.20;42.70
30520;DHT22;17300;50.374;8.006;2023-03-23T14:51:19;22.20;42.50
30520;DHT22;17300;50.374;8.006;2023-03-23T14:53:47;22.30;42.40
30520;DHT22;17300;50.374;8.006;2023-03-23T14:56:19;22.20;42.20
30520;DHT22;17300;50.374;8.006;2023-03-23T14:58:48;22.20;42.00
30520;DHT22;17300;50.374;8.006;2023-03-23T15:01:18;22.20;42.00
30520;DHT22;17300;50.374;8.006;2023-03-23T15:03:51;22.20;42.00
30520;DHT22;17300;50.374;8.006;2023-03-23T15:06:21;22.10;42.00
30520;DHT22;17300;50.374;8.006;2023-03-23T15:08:52;22.10;42.10
30520;DHT22;17300;50.374;8.006;2023-03-23T15:11:23;22.00;42.00
30520;DHT22;17300;50.374;8.006;2023-03-23T15:13:54;22.00;42.20
30520;DHT22;17300;50.374;8.006;2023-03-23T15:16:24;22.00;42.30
30520;DHT22;17300;50.374;8.006;2023-03-23T15:18:54;21.90;42.30
30520;DHT22;17300;50.374;8.006;2023-03-23T15:21:25;21.90;42.20
30520;DHT22;17300;50.374;8.006;2023-03-23T15:23:54;21.80;42.00
30520;DHT22;17300;50.374;8.006;2023-03-23T15:26:30;21.70;42.60
30520;DHT22;17300;50.374;8.006;2023-03-23T15:29:17;21.70;42.00
30520;DHT22;17300;50.374;8.006;2023-03-23T15:31:46;21.60;42.00
30520;DHT22;17300;50.374;8.006;2023-03-23T15:34:23;21.50;41.80
30520;DHT22;17300;50.374;8.006;2023-03-23T15:36:55;21.40;41.90
30520;DHT22;17300;50.374;8.006;2023-03-23T15:39:24;21.30;42.00
30520;DHT22;17300;50.374;8.006;2023-03-23T15:41:52;21.20;42.00
30520;DHT22;17300;50.374;8.006;2023-03-23T15:44:23;21.10;42.00
30520;DHT22;17300;50.374;8.006;2023-03-23T15:46:52;21.00;42.00
30520;DHT22;17300;50.374;8.006;2023-03-23T15:49:19;21.00;42.00
30520;DHT22;17300;50.374;8.006;2023-03-23T15:51:47;20.90;42.00
30520;DHT22;17300;50.374;8.006;2023-03-23T15:54:15;20.90;42.10
30520;DHT22;17300;50.374;8.006;2023-03-23T15:56:44;20.80;42.00
30520;DHT22;17300;50.374;8.006;2023-03-23T15:59:11;20.80;42.00
30520;DHT22;17300;50.374;8.006;2023-03-23T16:01:40;20.70;42.00